createdAt,value
2019-04-10T00:02:59.892Z,1003.02
2019-04-10T00:13:00.431Z,1003.01
2019-04-10T00:23:00.327Z,1003.22
2019-04-10T00:27:59.108Z,1003.19
2019-04-10T00:33:00.498Z,1003.21
2019-04-10T00:37:59.706Z,1003.24
2019-04-10T00:47:59.645Z,1003.23
2019-04-10T00:52:58.829Z,1003.41
2019-04-10T00:57:58.134Z,1003.33
2019-04-10T01:02:59.110Z,1003.25
2019-04-10T01:07:58.135Z,1003.24
2019-04-10T01:12:58.771Z,1003.24
2019-04-10T01:17:57.024Z,1003.26
2019-04-10T01:22:57.325Z,1003.21
2019-04-10T01:27:56.941Z,1003.23
2019-04-10T01:32:56.483Z,1003.36
2019-04-10T01:38:00.703Z,1003.22
2019-04-10T01:43:06.645Z,1003.30
2019-04-10T01:47:55.310Z,1003.29
2019-04-10T01:52:57.430Z,1003.19
2019-04-10T02:02:55.843Z,1003.31
2019-04-10T02:08:03.232Z,1003.36
2019-04-10T02:12:54.851Z,1003.33
2019-04-10T02:17:55.119Z,1003.36
2019-04-10T02:22:54.850Z,1003.33
2019-04-10T02:27:56.384Z,1003.37
2019-04-10T02:32:55.905Z,1003.37
2019-04-10T02:37:56.644Z,1003.37
2019-04-10T02:42:56.655Z,1003.38
2019-04-10T02:47:55.899Z,1003.39
2019-04-10T02:52:55.243Z,1003.42
2019-04-10T02:57:54.311Z,1003.49
2019-04-10T03:02:55.675Z,1003.56
2019-04-10T03:07:55.834Z,1003.50
2019-04-10T03:12:54.482Z,1003.50
2019-04-10T03:17:54.978Z,1003.57
2019-04-10T03:22:54.102Z,1003.52
2019-04-10T03:27:53.227Z,1003.54
2019-04-10T03:32:59.712Z,1003.64
2019-04-10T03:37:52.899Z,1003.69
2019-04-10T03:47:51.544Z,1003.70
2019-04-10T03:52:51.698Z,1003.77
2019-04-10T03:57:51.869Z,1003.82
2019-04-10T04:02:50.453Z,1003.79
2019-04-10T04:07:50.691Z,1003.83
2019-04-10T04:12:50.960Z,1003.72
2019-04-10T04:22:49.469Z,1003.85
2019-04-10T04:27:49.656Z,1003.82
2019-04-10T04:32:48.415Z,1003.87
2019-04-10T04:37:48.435Z,1003.87
2019-04-10T04:42:49.368Z,1003.94
2019-04-10T04:47:48.087Z,1004.02
2019-04-10T04:52:46.495Z,1004.11
2019-04-10T05:02:47.040Z,1004.17
2019-04-10T05:07:57.396Z,1004.26
2019-04-10T05:12:45.626Z,1004.37
2019-04-10T05:22:46.370Z,1004.50
2019-04-10T05:27:45.540Z,1004.62
2019-04-10T05:32:44.552Z,1004.71
2019-04-10T05:37:45.722Z,1004.78
2019-04-10T05:47:46.453Z,1004.86
2019-04-10T05:52:45.094Z,1004.88
2019-04-10T06:02:43.863Z,1004.95
2019-04-10T06:07:43.443Z,1005.02
2019-04-10T06:12:42.662Z,1005.09
2019-04-10T06:17:42.735Z,1005.09
2019-04-10T06:22:41.360Z,1005.08
2019-04-10T06:27:41.421Z,1005.01
2019-04-10T06:32:41.415Z,1004.96
2019-04-10T06:37:42.810Z,1005.13
2019-04-10T06:42:47.526Z,1005.07
2019-04-10T06:47:42.440Z,1005.03
2019-04-10T06:52:42.712Z,1005.09
2019-04-10T06:57:49.177Z,1005.06
2019-04-10T07:02:42.230Z,1005.09
2019-04-10T07:07:51.448Z,1005.09
2019-04-10T07:12:43.723Z,1005.14
2019-04-10T07:17:43.263Z,1005.18
2019-04-10T07:22:46.497Z,1005.14
2019-04-10T07:27:42.015Z,1005.26
2019-04-10T07:32:45.747Z,1005.20
2019-04-10T07:37:40.983Z,1005.33
2019-04-10T07:42:41.884Z,1005.29
2019-04-10T07:47:40.543Z,1005.30
2019-04-10T07:52:41.388Z,1005.30
2019-04-10T08:02:40.671Z,1005.38
2019-04-10T08:07:40.578Z,1005.24
2019-04-10T08:12:47.407Z,1005.38
2019-04-10T08:17:39.668Z,1005.37
2019-04-10T08:22:39.291Z,1005.39
2019-04-10T08:27:38.534Z,1005.46
2019-04-10T08:32:50.926Z,1005.46
2019-04-10T08:37:36.872Z,1005.51
2019-04-10T08:42:35.624Z,1005.40
2019-04-10T08:47:35.378Z,1005.44
2019-04-10T08:52:36.911Z,1005.44
2019-04-10T09:02:35.920Z,1005.43
2019-04-10T09:12:35.665Z,1005.50
2019-04-10T09:17:35.981Z,1005.48
2019-04-10T09:22:49.799Z,1005.32
2019-04-10T09:27:37.715Z,1005.44
2019-04-10T09:32:36.788Z,1005.38
2019-04-10T09:37:35.705Z,1005.46
2019-04-10T09:42:35.821Z,1005.38
2019-04-10T09:47:35.807Z,1005.37
2019-04-10T09:52:35.679Z,1005.31
2019-04-10T09:57:34.765Z,1005.32
2019-04-10T10:02:34.186Z,1005.34
2019-04-10T10:07:34.795Z,1005.39
2019-04-10T10:12:34.729Z,1005.29
2019-04-10T10:17:33.119Z,1005.23
2019-04-10T10:22:33.525Z,1005.29
2019-04-10T10:27:32.227Z,1005.23
2019-04-10T10:32:31.236Z,1005.31
2019-04-10T10:37:30.887Z,1005.39
2019-04-10T10:42:31.769Z,1005.37
2019-04-10T10:47:32.578Z,1005.45
2019-04-10T10:52:31.360Z,1005.41
2019-04-10T10:57:29.815Z,1005.39
2019-04-10T11:02:29.898Z,1005.36
2019-04-10T11:12:30.383Z,1005.28
2019-04-10T11:17:28.303Z,1005.37
2019-04-10T11:22:27.289Z,1005.37
2019-04-10T11:27:28.075Z,1005.31
2019-04-10T11:37:36.639Z,1005.35
2019-04-10T11:42:26.876Z,1005.45
2019-04-10T11:52:33.753Z,1005.57
2019-04-10T11:57:30.198Z,1005.50
2019-04-10T12:07:55.112Z,1005.57
2019-04-10T12:12:25.978Z,1005.64
2019-04-10T12:17:25.647Z,1005.60
2019-04-10T12:22:26.053Z,1005.54
2019-04-10T12:27:25.186Z,1005.57
2019-04-10T12:32:24.940Z,1005.55
2019-04-10T12:42:24.058Z,1005.65
2019-04-10T12:47:24.119Z,1005.66
2019-04-10T12:52:24.758Z,1005.55
2019-04-10T13:02:23.409Z,1005.59
2019-04-10T13:07:23.315Z,1005.57
2019-04-10T13:12:21.476Z,1005.44
2019-04-10T13:17:21.248Z,1005.45
2019-04-10T13:22:22.168Z,1005.40
2019-04-10T13:27:20.858Z,1005.45
2019-04-10T13:37:21.050Z,1005.46
2019-04-10T13:42:20.964Z,1005.48
2019-04-10T13:47:19.633Z,1005.44
2019-04-10T13:52:20.244Z,1005.54
2019-04-10T14:02:18.454Z,1005.59
2019-04-10T14:07:19.881Z,1005.58
2019-04-10T14:12:19.198Z,1005.51
2019-04-10T14:17:18.189Z,1005.53
2019-04-10T14:22:18.127Z,1005.66
2019-04-10T14:27:18.312Z,1005.64
2019-04-10T14:32:18.318Z,1005.75
2019-04-10T14:37:17.076Z,1005.72
2019-04-10T14:42:18.241Z,1005.72
2019-04-10T14:47:17.141Z,1005.80
2019-04-10T14:57:15.364Z,1005.89
2019-04-10T15:02:15.194Z,1005.87
2019-04-10T15:07:14.623Z,1005.97
2019-04-10T15:12:16.330Z,1005.94
2019-04-10T15:17:14.768Z,1005.97
2019-04-10T15:22:14.152Z,1006.03
2019-04-10T15:27:15.299Z,1006.03
2019-04-10T15:32:14.641Z,1006.05
2019-04-10T15:37:13.462Z,1006.11
2019-04-10T15:42:12.400Z,1006.19
2019-04-10T15:52:12.130Z,1006.22
2019-04-10T15:57:10.813Z,1006.16
2019-04-10T16:02:11.373Z,1006.26
2019-04-10T16:07:11.939Z,1006.28
2019-04-10T16:12:11.334Z,1006.32
2019-04-10T16:17:10.423Z,1006.34
2019-04-10T16:22:10.760Z,1006.35
2019-04-10T16:27:11.775Z,1006.39
2019-04-10T16:32:10.704Z,1006.43
2019-04-10T16:37:12.545Z,1006.46
2019-04-10T16:42:10.618Z,1006.60
2019-04-10T16:47:10.393Z,1006.56
2019-04-10T16:52:09.354Z,1006.68
2019-04-10T16:57:08.624Z,1006.68
2019-04-10T17:02:07.598Z,1006.71
2019-04-10T17:07:06.693Z,1006.73
2019-04-10T17:12:06.947Z,1006.66
2019-04-10T17:17:06.435Z,1006.67
2019-04-10T17:27:07.831Z,1006.89
2019-04-10T17:32:06.897Z,1006.90
2019-04-10T17:37:05.681Z,1006.99
2019-04-10T17:47:08.006Z,1007.10
2019-04-10T17:52:06.306Z,1007.07
2019-04-10T17:57:05.513Z,1007.12
2019-04-10T18:02:05.549Z,1007.31
2019-04-10T18:07:06.314Z,1007.36
2019-04-10T18:12:06.069Z,1007.46
2019-04-10T18:17:04.591Z,1007.51
2019-04-10T18:22:04.082Z,1007.55
2019-04-10T18:32:03.390Z,1007.80
2019-04-10T18:37:02.868Z,1007.88
2019-04-10T18:42:02.143Z,1007.87
2019-04-10T18:47:01.226Z,1008.02
2019-04-10T18:52:01.473Z,1007.94
2019-04-10T19:02:01.436Z,1008.11
2019-04-10T19:07:00.851Z,1008.11
2019-04-10T19:12:00.433Z,1008.12
2019-04-10T19:17:00.314Z,1008.19
2019-04-10T19:22:00.018Z,1008.26
2019-04-10T19:26:58.642Z,1008.30
2019-04-10T19:31:58.195Z,1008.35
2019-04-10T19:36:56.627Z,1008.35
2019-04-10T19:41:55.702Z,1008.32
2019-04-10T19:46:55.726Z,1008.50
2019-04-10T19:51:54.217Z,1008.52
2019-04-10T19:56:55.042Z,1008.67
2019-04-10T20:01:55.326Z,1008.64
2019-04-10T20:06:56.427Z,1008.67
2019-04-10T20:11:56.128Z,1008.70
2019-04-10T20:16:55.575Z,1008.72
2019-04-10T20:21:54.594Z,1008.79
2019-04-10T20:26:54.349Z,1008.83
2019-04-10T20:31:53.412Z,1008.86
2019-04-10T20:36:53.792Z,1008.94
2019-04-10T20:41:55.065Z,1009.01
2019-04-10T20:46:54.782Z,1009.02
2019-04-10T20:56:51.435Z,1009.10
2019-04-10T21:01:50.445Z,1009.14
2019-04-10T21:06:50.108Z,1009.25
2019-04-10T21:12:00.920Z,1009.24
2019-04-10T21:16:49.806Z,1009.32
2019-04-10T21:21:49.007Z,1009.37
2019-04-10T21:26:48.714Z,1009.40
2019-04-10T21:31:48.506Z,1009.34
2019-04-10T21:36:49.547Z,1009.36
2019-04-10T21:41:48.875Z,1009.38
2019-04-10T21:46:48.605Z,1009.38
2019-04-10T21:51:49.454Z,1009.42
2019-04-10T21:56:49.391Z,1009.47
2019-04-10T22:11:47.577Z,1009.51
2019-04-10T22:16:46.349Z,1009.53
2019-04-10T22:21:46.109Z,1009.60
2019-04-10T22:26:44.547Z,1009.57
2019-04-10T22:31:43.822Z,1009.65
2019-04-10T22:36:42.808Z,1009.67
2019-04-10T22:41:42.840Z,1009.70
2019-04-10T22:46:42.670Z,1009.75
2019-04-10T22:51:43.889Z,1009.72
2019-04-10T22:56:42.274Z,1009.76
2019-04-10T23:01:40.866Z,1009.78
2019-04-10T23:06:41.628Z,1009.75
2019-04-10T23:11:42.242Z,1009.78
2019-04-10T23:16:40.054Z,1009.73
2019-04-10T23:21:40.759Z,1009.78
2019-04-10T23:26:39.524Z,1009.82
2019-04-10T23:31:39.512Z,1009.82
2019-04-10T23:36:40.311Z,1009.84
2019-04-10T23:41:37.933Z,1009.86
2019-04-10T23:46:38.806Z,1009.92
2019-04-10T23:51:37.742Z,1009.97
2019-04-10T23:56:37.833Z,1010.03
